sensor_id;sensor_type;location;lat;lon;timestamp;P1;durP1;ratioP1;P2;durP2;ratioP2
49396;SDS011;35615;41.410;2.194;2022-08-04T00:00:17;5.22;;;2.72;;
49396;SDS011;35615;41.410;2.194;2022-08-04T00:02:55;4.28;;;2.65;;
49396;SDS011;35615;41.410;2.194;2022-08-04T00:05:40;10.65;;;2.90;;
49396;SDS011;35615;41.410;2.194;2022-08-04T00:10:59;4.15;;;2.25;;
49396;SDS011;35615;41.410;2.194;2022-08-04T00:13:31;6.65;;;2.80;;
49396;SDS011;35615;41.410;2.194;2022-08-04T00:16:25;5.13;;;2.63;;
49396;SDS011;35615;41.410;2.194;2022-08-04T00:19:11;6.25;;;2.88;;
49396;SDS011;35615;41.410;2.194;2022-08-04T00:21:50;11.15;;;3.47;;
49396;SDS011;35615;41.410;2.194;2022-08-04T00:24:28;5.88;;;2.90;;
49396;SDS011;35615;41.410;2.194;2022-08-04T00:26:56;13.20;;;4.38;;
49396;SDS011;35615;41.410;2.194;2022-08-04T00:29:24;5.13;;;2.90;;
49396;SDS011;35615;41.410;2.194;2022-08-04T00:31:55;6.78;;;3.55;;
49396;SDS011;35615;41.410;2.194;2022-08-04T00:34:30;4.00;;;3.10;;
49396;SDS011;35615;41.410;2.194;2022-08-04T00:37:02;7.63;;;3.30;;
49396;SDS011;35615;41.410;2.194;2022-08-04T00:39:37;6.60;;;3.92;;
49396;SDS011;35615;41.410;2.194;2022-08-04T00:51:05;3.78;;;3.20;;
49396;SDS011;35615;41.410;2.194;2022-08-04T00:56:43;6.07;;;3.25;;
49396;SDS011;35615;41.410;2.194;2022-08-04T00:59:43;5.07;;;3.20;;
49396;SDS011;35615;41.410;2.194;2022-08-04T01:05:24;6.68;;;3.30;;
49396;SDS011;35615;41.410;2.194;2022-08-04T01:11:22;10.70;;;3.97;;
49396;SDS011;35615;41.410;2.194;2022-08-04T01:17:27;8.85;;;3.78;;
49396;SDS011;35615;41.410;2.194;2022-08-04T01:20:08;6.05;;;3.47;;
49396;SDS011;35615;41.410;2.194;2022-08-04T01:33:53;7.88;;;3.33;;
49396;SDS011;35615;41.410;2.194;2022-08-04T01:36:32;3.92;;;2.67;;
49396;SDS011;35615;41.410;2.194;2022-08-04T01:39:01;5.75;;;3.53;;
49396;SDS011;35615;41.410;2.194;2022-08-04T01:41:51;6.20;;;3.25;;
49396;SDS011;35615;41.410;2.194;2022-08-04T01:44:26;7.95;;;3.50;;
49396;SDS011;35615;41.410;2.194;2022-08-04T01:47:03;8.35;;;3.10;;
49396;SDS011;35615;41.410;2.194;2022-08-04T01:49:32;7.82;;;3.53;;
49396;SDS011;35615;41.410;2.194;2022-08-04T01:52:07;10.30;;;5.38;;
49396;SDS011;35615;41.410;2.194;2022-08-04T01:54:36;10.77;;;5.85;;
49396;SDS011;35615;41.410;2.194;2022-08-04T01:57:08;13.95;;;5.82;;
49396;SDS011;35615;41.410;2.194;2022-08-04T01:59:57;10.43;;;5.15;;
49396;SDS011;35615;41.410;2.194;2022-08-04T02:02:26;5.90;;;3.92;;
49396;SDS011;35615;41.410;2.194;2022-08-04T02:04:54;10.00;;;4.00;;
49396;SDS011;35615;41.410;2.194;2022-08-04T02:07:45;8.85;;;4.47;;
49396;SDS011;35615;41.410;2.194;2022-08-04T02:18:49;4.38;;;3.83;;
49396;SDS011;35615;41.410;2.194;2022-08-04T02:21:40;8.52;;;3.70;;
49396;SDS011;35615;41.410;2.194;2022-08-04T02:24:11;7.05;;;3.40;;
49396;SDS011;35615;41.410;2.194;2022-08-04T02:26:41;9.55;;;3.60;;
49396;SDS011;35615;41.410;2.194;2022-08-04T02:32:14;5.93;;;3.88;;
49396;SDS011;35615;41.410;2.194;2022-08-04T02:34:57;10.35;;;4.30;;
49396;SDS011;35615;41.410;2.194;2022-08-04T02:37:30;12.55;;;4.05;;
49396;SDS011;35615;41.410;2.194;2022-08-04T02:40:04;6.82;;;3.88;;
49396;SDS011;35615;41.410;2.194;2022-08-04T02:42:35;6.63;;;3.80;;
49396;SDS011;35615;41.410;2.194;2022-08-04T02:45:09;10.45;;;4.43;;
49396;SDS011;35615;41.410;2.194;2022-08-04T02:47:39;9.47;;;4.23;;
49396;SDS011;35615;41.410;2.194;2022-08-04T02:50:29;5.85;;;3.53;;
49396;SDS011;35615;41.410;2.194;2022-08-04T02:53:06;6.40;;;4.45;;
49396;SDS011;35615;41.410;2.194;2022-08-04T02:55:41;8.23;;;4.03;;
49396;SDS011;35615;41.410;2.194;2022-08-04T02:58:19;11.25;;;4.40;;
49396;SDS011;35615;41.410;2.194;2022-08-04T03:03:55;9.18;;;4.55;;
49396;SDS011;35615;41.410;2.194;2022-08-04T03:15:49;8.63;;;4.15;;
49396;SDS011;35615;41.410;2.194;2022-08-04T03:19:01;6.22;;;4.20;;
49396;SDS011;35615;41.410;2.194;2022-08-04T03:22:11;11.32;;;4.22;;
49396;SDS011;35615;41.410;2.194;2022-08-04T03:37:38;7.45;;;4.10;;
49396;SDS011;35615;41.410;2.194;2022-08-04T03:43:44;4.28;;;3.88;;
49396;SDS011;35615;41.410;2.194;2022-08-04T03:55:24;5.38;;;4.00;;
49396;SDS011;35615;41.410;2.194;2022-08-04T04:00:46;11.20;;;4.30;;
49396;SDS011;35615;41.410;2.194;2022-08-04T04:24:21;6.32;;;3.97;;
49396;SDS011;35615;41.410;2.194;2022-08-04T04:27:20;12.20;;;4.00;;
49396;SDS011;35615;41.410;2.194;2022-08-04T04:32:56;6.60;;;4.00;;
49396;SDS011;35615;41.410;2.194;2022-08-04T04:35:36;8.20;;;4.38;;
49396;SDS011;35615;41.410;2.194;2022-08-04T04:38:28;7.18;;;4.28;;
49396;SDS011;35615;41.410;2.194;2022-08-04T04:58:17;11.10;;;4.57;;
49396;SDS011;35615;41.410;2.194;2022-08-04T05:07:07;8.15;;;4.85;;
49396;SDS011;35615;41.410;2.194;2022-08-04T05:16:07;10.88;;;4.25;;
49396;SDS011;35615;41.410;2.194;2022-08-04T05:18:43;20.17;;;4.78;;
49396;SDS011;35615;41.410;2.194;2022-08-04T05:21:18;7.47;;;4.40;;
49396;SDS011;35615;41.410;2.194;2022-08-04T05:23:55;13.60;;;4.75;;
49396;SDS011;35615;41.410;2.194;2022-08-04T05:26:36;12.85;;;5.43;;
49396;SDS011;35615;41.410;2.194;2022-08-04T05:31:47;11.60;;;4.60;;
49396;SDS011;35615;41.410;2.194;2022-08-04T05:34:29;8.68;;;4.35;;
49396;SDS011;35615;41.410;2.194;2022-08-04T05:37:05;11.98;;;4.95;;
49396;SDS011;35615;41.410;2.194;2022-08-04T05:39:47;8.48;;;4.40;;
49396;SDS011;35615;41.410;2.194;2022-08-04T05:42:25;14.13;;;5.07;;
49396;SDS011;35615;41.410;2.194;2022-08-04T05:44:55;10.88;;;4.60;;
49396;SDS011;35615;41.410;2.194;2022-08-04T05:50:07;10.05;;;4.75;;
49396;SDS011;35615;41.410;2.194;2022-08-04T05:52:47;10.55;;;4.72;;
49396;SDS011;35615;41.410;2.194;2022-08-04T05:55:30;12.68;;;5.72;;
49396;SDS011;35615;41.410;2.194;2022-08-04T05:58:29;12.68;;;5.88;;
49396;SDS011;35615;41.410;2.194;2022-08-04T06:00:58;15.23;;;5.53;;
49396;SDS011;35615;41.410;2.194;2022-08-04T06:03:30;19.40;;;5.80;;
49396;SDS011;35615;41.410;2.194;2022-08-04T06:06:04;13.93;;;6.50;;
49396;SDS011;35615;41.410;2.194;2022-08-04T06:08:39;20.02;;;5.88;;
49396;SDS011;35615;41.410;2.194;2022-08-04T06:11:18;12.45;;;5.63;;
49396;SDS011;35615;41.410;2.194;2022-08-04T06:13:51;13.43;;;5.78;;
49396;SDS011;35615;41.410;2.194;2022-08-04T06:16:42;12.45;;;5.65;;
49396;SDS011;35615;41.410;2.194;2022-08-04T06:19:17;19.52;;;5.97;;
49396;SDS011;35615;41.410;2.194;2022-08-04T06:22:10;15.10;;;5.63;;
49396;SDS011;35615;41.410;2.194;2022-08-04T06:24:41;21.40;;;6.03;;
49396;SDS011;35615;41.410;2.194;2022-08-04T06:27:24;12.45;;;5.88;;
49396;SDS011;35615;41.410;2.194;2022-08-04T06:30:01;10.43;;;5.10;;
49396;SDS011;35615;41.410;2.194;2022-08-04T06:32:41;19.27;;;5.35;;
49396;SDS011;35615;41.410;2.194;2022-08-04T06:35:32;11.57;;;5.72;;
49396;SDS011;35615;41.410;2.194;2022-08-04T06:38:09;15.05;;;5.75;;
49396;SDS011;35615;41.410;2.194;2022-08-04T06:40:40;11.35;;;5.80;;
49396;SDS011;35615;41.410;2.194;2022-08-04T06:43:20;16.17;;;6.15;;
49396;SDS011;35615;41.410;2.194;2022-08-04T06:45:53;15.02;;;5.53;;
49396;SDS011;35615;41.410;2.194;2022-08-04T06:48:30;11.20;;;5.38;;
49396;SDS011;35615;41.410;2.194;2022-08-04T06:51:06;9.63;;;5.38;;
49396;SDS011;35615;41.410;2.194;2022-08-04T06:54:01;19.60;;;7.18;;
49396;SDS011;35615;41.410;2.194;2022-08-04T06:56:32;7.80;;;4.85;;
49396;SDS011;35615;41.410;2.194;2022-08-04T06:59:12;25.88;;;6.78;;
49396;SDS011;35615;41.410;2.194;2022-08-04T07:01:48;16.05;;;6.40;;
49396;SDS011;35615;41.410;2.194;2022-08-04T07:04:36;11.35;;;6.57;;
49396;SDS011;35615;41.410;2.194;2022-08-04T07:07:09;15.48;;;6.07;;
49396;SDS011;35615;41.410;2.194;2022-08-04T07:09:38;23.08;;;6.25;;
49396;SDS011;35615;41.410;2.194;2022-08-04T07:12:11;14.27;;;5.30;;
49396;SDS011;35615;41.410;2.194;2022-08-04T07:14:43;21.70;;;5.82;;
49396;SDS011;35615;41.410;2.194;2022-08-04T07:17:17;10.40;;;5.63;;
49396;SDS011;35615;41.410;2.194;2022-08-04T07:20:05;13.82;;;5.80;;
49396;SDS011;35615;41.410;2.194;2022-08-04T07:22:39;11.50;;;6.13;;
49396;SDS011;35615;41.410;2.194;2022-08-04T07:25:16;16.08;;;6.97;;
49396;SDS011;35615;41.410;2.194;2022-08-04T07:30:38;22.58;;;7.78;;
49396;SDS011;35615;41.410;2.194;2022-08-04T07:33:09;11.02;;;5.97;;
49396;SDS011;35615;41.410;2.194;2022-08-04T07:35:39;22.55;;;6.30;;
49396;SDS011;35615;41.410;2.194;2022-08-04T07:38:29;18.77;;;6.68;;
49396;SDS011;35615;41.410;2.194;2022-08-04T07:40:57;14.95;;;5.93;;
49396;SDS011;35615;41.410;2.194;2022-08-04T07:43:28;16.63;;;6.32;;
49396;SDS011;35615;41.410;2.194;2022-08-04T07:45:58;14.15;;;6.70;;
49396;SDS011;35615;41.410;2.194;2022-08-04T07:48:27;15.02;;;5.63;;
49396;SDS011;35615;41.410;2.194;2022-08-04T07:50:57;25.67;;;6.95;;
49396;SDS011;35615;41.410;2.194;2022-08-04T07:53:31;29.10;;;6.80;;
49396;SDS011;35615;41.410;2.194;2022-08-04T07:56:22;25.48;;;6.32;;
49396;SDS011;35615;41.410;2.194;2022-08-04T07:58:52;14.73;;;5.97;;
49396;SDS011;35615;41.410;2.194;2022-08-04T08:01:21;9.57;;;5.70;;
49396;SDS011;35615;41.410;2.194;2022-08-04T08:03:53;10.43;;;4.75;;
49396;SDS011;35615;41.410;2.194;2022-08-04T08:06:27;14.50;;;4.82;;
49396;SDS011;35615;41.410;2.194;2022-08-04T08:09:05;10.82;;;4.68;;
49396;SDS011;35615;41.410;2.194;2022-08-04T08:11:44;11.90;;;4.65;;
49396;SDS011;35615;41.410;2.194;2022-08-04T08:14:35;20.50;;;5.88;;
49396;SDS011;35615;41.410;2.194;2022-08-04T08:17:03;14.77;;;4.93;;
49396;SDS011;35615;41.410;2.194;2022-08-04T08:19:36;10.63;;;4.90;;
49396;SDS011;35615;41.410;2.194;2022-08-04T08:22:14;13.00;;;5.68;;
49396;SDS011;35615;41.410;2.194;2022-08-04T08:24:49;13.57;;;5.22;;
49396;SDS011;35615;41.410;2.194;2022-08-04T08:27:19;16.02;;;5.30;;
49396;SDS011;35615;41.410;2.194;2022-08-04T08:29:59;15.05;;;5.60;;
49396;SDS011;35615;41.410;2.194;2022-08-04T08:32:30;13.85;;;6.03;;
49396;SDS011;35615;41.410;2.194;2022-08-04T08:34:57;20.58;;;5.75;;
49396;SDS011;35615;41.410;2.194;2022-08-04T08:37:34;22.02;;;5.50;;
49396;SDS011;35615;41.410;2.194;2022-08-04T08:52:40;15.57;;;7.05;;
49396;SDS011;35615;41.410;2.194;2022-08-04T08:58:21;12.35;;;5.50;;
49396;SDS011;35615;41.410;2.194;2022-08-04T09:06:58;19.92;;;4.40;;
49396;SDS011;35615;41.410;2.194;2022-08-04T09:09:42;12.40;;;3.97;;
49396;SDS011;35615;41.410;2.194;2022-08-04T09:12:24;9.77;;;3.92;;
49396;SDS011;35615;41.410;2.194;2022-08-04T09:15:21;10.82;;;3.10;;
49396;SDS011;35615;41.410;2.194;2022-08-04T09:24:08;5.28;;;2.65;;
49396;SDS011;35615;41.410;2.194;2022-08-04T09:27:04;5.00;;;2.53;;
49396;SDS011;35615;41.410;2.194;2022-08-04T09:39:11;4.35;;;2.30;;
49396;SDS011;35615;41.410;2.194;2022-08-04T09:45:02;7.35;;;2.95;;
49396;SDS011;35615;41.410;2.194;2022-08-04T09:51:09;2.33;;;2.05;;
49396;SDS011;35615;41.410;2.194;2022-08-04T09:54:36;4.28;;;2.35;;
49396;SDS011;35615;41.410;2.194;2022-08-04T09:57:12;6.45;;;2.58;;
49396;SDS011;35615;41.410;2.194;2022-08-04T10:00:20;6.75;;;2.33;;
49396;SDS011;35615;41.410;2.194;2022-08-04T10:03:17;8.00;;;2.60;;
49396;SDS011;35615;41.410;2.194;2022-08-04T10:05:59;3.22;;;2.10;;
49396;SDS011;35615;41.410;2.194;2022-08-04T10:08:53;6.50;;;2.38;;
49396;SDS011;35615;41.410;2.194;2022-08-04T10:26:53;6.38;;;2.30;;
49396;SDS011;35615;41.410;2.194;2022-08-04T10:29:47;15.63;;;2.88;;
49396;SDS011;35615;41.410;2.194;2022-08-04T10:32:33;6.50;;;2.50;;
49396;SDS011;35615;41.410;2.194;2022-08-04T10:35:29;7.57;;;3.08;;
49396;SDS011;35615;41.410;2.194;2022-08-04T10:38:26;8.88;;;2.65;;
49396;SDS011;35615;41.410;2.194;2022-08-04T10:41:17;3.10;;;2.05;;
49396;SDS011;35615;41.410;2.194;2022-08-04T10:44:18;5.72;;;2.40;;
49396;SDS011;35615;41.410;2.194;2022-08-04T10:47:17;5.97;;;2.65;;
49396;SDS011;35615;41.410;2.194;2022-08-04T10:49:57;4.63;;;2.63;;
49396;SDS011;35615;41.410;2.194;2022-08-04T10:52:35;7.18;;;2.80;;
49396;SDS011;35615;41.410;2.194;2022-08-04T10:55:12;6.55;;;2.35;;
49396;SDS011;35615;41.410;2.194;2022-08-04T10:58:06;6.97;;;2.80;;
49396;SDS011;35615;41.410;2.194;2022-08-04T11:00:40;7.75;;;2.88;;
49396;SDS011;35615;41.410;2.194;2022-08-04T11:03:22;7.00;;;2.33;;
49396;SDS011;35615;41.410;2.194;2022-08-04T11:05:59;9.95;;;2.70;;
49396;SDS011;35615;41.410;2.194;2022-08-04T11:11:08;8.13;;;2.92;;
49396;SDS011;35615;41.410;2.194;2022-08-04T11:14:30;7.30;;;3.58;;
49396;SDS011;35615;41.410;2.194;2022-08-04T11:17:07;11.68;;;3.28;;
49396;SDS011;35615;41.410;2.194;2022-08-04T11:25:45;7.18;;;2.97;;
49396;SDS011;35615;41.410;2.194;2022-08-04T11:31:30;5.13;;;2.70;;
49396;SDS011;35615;41.410;2.194;2022-08-04T11:34:05;3.97;;;2.40;;
49396;SDS011;35615;41.410;2.194;2022-08-04T11:42:40;7.47;;;3.75;;
49396;SDS011;35615;41.410;2.194;2022-08-04T11:45:16;5.97;;;2.33;;
49396;SDS011;35615;41.410;2.194;2022-08-04T11:47:54;4.43;;;2.10;;
49396;SDS011;35615;41.410;2.194;2022-08-04T11:50:37;11.90;;;3.17;;
49396;SDS011;35615;41.410;2.194;2022-08-04T11:53:20;4.03;;;2.70;;
49396;SDS011;35615;41.410;2.194;2022-08-04T11:55:51;6.15;;;2.95;;
49396;SDS011;35615;41.410;2.194;2022-08-04T11:58:35;5.32;;;2.92;;
49396;SDS011;35615;41.410;2.194;2022-08-04T12:03:58;8.40;;;2.30;;
49396;SDS011;35615;41.410;2.194;2022-08-04T12:06:44;7.03;;;3.00;;
49396;SDS011;35615;41.410;2.194;2022-08-04T12:12:47;3.38;;;2.20;;
49396;SDS011;35615;41.410;2.194;2022-08-04T12:16:31;5.10;;;2.13;;
49396;SDS011;35615;41.410;2.194;2022-08-04T12:18:51;5.85;;;2.00;;
49396;SDS011;35615;41.410;2.194;2022-08-04T12:21:28;6.75;;;2.30;;
49396;SDS011;35615;41.410;2.194;2022-08-04T12:24:01;5.32;;;1.83;;
49396;SDS011;35615;41.410;2.194;2022-08-04T12:26:36;7.82;;;2.42;;
49396;SDS011;35615;41.410;2.194;2022-08-04T12:29:13;4.55;;;1.92;;
49396;SDS011;35615;41.410;2.194;2022-08-04T12:31:48;3.33;;;1.97;;
49396;SDS011;35615;41.410;2.194;2022-08-04T12:37:03;5.93;;;2.20;;
49396;SDS011;35615;41.410;2.194;2022-08-04T12:39:50;3.60;;;2.00;;
49396;SDS011;35615;41.410;2.194;2022-08-04T12:45:22;2.92;;;1.73;;
49396;SDS011;35615;41.410;2.194;2022-08-04T12:47:51;4.13;;;2.30;;
49396;SDS011;35615;41.410;2.194;2022-08-04T12:50:22;3.87;;;1.77;;
49396;SDS011;35615;41.410;2.194;2022-08-04T12:52:51;11.20;;;2.35;;
49396;SDS011;35615;41.410;2.194;2022-08-04T12:55:28;4.80;;;1.90;;
49396;SDS011;35615;41.410;2.194;2022-08-04T12:58:00;10.07;;;3.15;;
49396;SDS011;35615;41.410;2.194;2022-08-04T13:00:33;3.45;;;1.88;;
49396;SDS011;35615;41.410;2.194;2022-08-04T13:03:11;7.95;;;2.17;;
49396;SDS011;35615;41.410;2.194;2022-08-04T13:05:44;4.28;;;2.28;;
49396;SDS011;35615;41.410;2.194;2022-08-04T13:08:19;5.35;;;2.15;;
49396;SDS011;35615;41.410;2.194;2022-08-04T13:10:49;4.95;;;2.28;;
49396;SDS011;35615;41.410;2.194;2022-08-04T13:13:23;3.35;;;2.35;;
49396;SDS011;35615;41.410;2.194;2022-08-04T13:18:37;17.77;;;3.13;;
49396;SDS011;35615;41.410;2.194;2022-08-04T13:21:10;9.80;;;2.53;;
49396;SDS011;35615;41.410;2.194;2022-08-04T13:23:52;6.93;;;2.20;;
49396;SDS011;35615;41.410;2.194;2022-08-04T13:26:45;3.20;;;1.80;;
49396;SDS011;35615;41.410;2.194;2022-08-04T13:29:22;6.78;;;2.15;;
49396;SDS011;35615;41.410;2.194;2022-08-04T13:32:15;5.18;;;1.70;;
49396;SDS011;35615;41.410;2.194;2022-08-04T13:34:48;4.15;;;2.20;;
49396;SDS011;35615;41.410;2.194;2022-08-04T13:37:23;7.20;;;2.13;;
49396;SDS011;35615;41.410;2.194;2022-08-04T13:39:53;4.85;;;2.10;;
49396;SDS011;35615;41.410;2.194;2022-08-04T13:42:24;8.52;;;2.95;;
49396;SDS011;35615;41.410;2.194;2022-08-04T13:44:57;4.65;;;2.28;;
49396;SDS011;35615;41.410;2.194;2022-08-04T13:47:33;7.30;;;2.22;;
49396;SDS011;35615;41.410;2.194;2022-08-04T13:50:09;2.78;;;2.13;;
49396;SDS011;35615;41.410;2.194;2022-08-04T13:52:42;3.05;;;2.10;;
49396;SDS011;35615;41.410;2.194;2022-08-04T13:55:21;5.22;;;2.03;;
49396;SDS011;35615;41.410;2.194;2022-08-04T13:57:58;2.67;;;1.63;;
49396;SDS011;35615;41.410;2.194;2022-08-04T14:00:42;4.97;;;2.08;;
49396;SDS011;35615;41.410;2.194;2022-08-04T14:03:14;9.63;;;2.03;;
49396;SDS011;35615;41.410;2.194;2022-08-04T14:08:55;11.95;;;2.15;;
49396;SDS011;35615;41.410;2.194;2022-08-04T14:11:34;6.53;;;2.13;;
49396;SDS011;35615;41.410;2.194;2022-08-04T14:14:29;6.50;;;1.92;;
49396;SDS011;35615;41.410;2.194;2022-08-04T14:16:58;5.97;;;2.10;;
49396;SDS011;35615;41.410;2.194;2022-08-04T14:19:46;5.00;;;2.20;;
49396;SDS011;35615;41.410;2.194;2022-08-04T14:22:38;4.18;;;2.28;;
49396;SDS011;35615;41.410;2.194;2022-08-04T14:25:13;6.80;;;2.08;;
49396;SDS011;35615;41.410;2.194;2022-08-04T14:33:05;3.50;;;1.70;;
49396;SDS011;35615;41.410;2.194;2022-08-04T14:35:56;17.20;;;2.17;;
49396;SDS011;35615;41.410;2.194;2022-08-04T14:38:47;3.97;;;1.95;;
49396;SDS011;35615;41.410;2.194;2022-08-04T14:41:28;4.97;;;1.90;;
49396;SDS011;35615;41.410;2.194;2022-08-04T14:43:58;7.13;;;1.95;;
49396;SDS011;35615;41.410;2.194;2022-08-04T14:46:29;4.40;;;2.10;;
49396;SDS011;35615;41.410;2.194;2022-08-04T14:51:52;3.45;;;2.45;;
49396;SDS011;35615;41.410;2.194;2022-08-04T14:54:26;2.47;;;2.05;;
49396;SDS011;35615;41.410;2.194;2022-08-04T14:57:04;6.38;;;2.30;;
49396;SDS011;35615;41.410;2.194;2022-08-04T14:59:44;3.92;;;2.10;;
49396;SDS011;35615;41.410;2.194;2022-08-04T15:02:27;5.75;;;2.00;;
49396;SDS011;35615;41.410;2.194;2022-08-04T15:04:58;4.63;;;1.60;;
49396;SDS011;35615;41.410;2.194;2022-08-04T15:07:48;4.22;;;1.95;;
49396;SDS011;35615;41.410;2.194;2022-08-04T15:10:16;4.20;;;2.30;;
49396;SDS011;35615;41.410;2.194;2022-08-04T15:12:43;6.80;;;1.75;;
49396;SDS011;35615;41.410;2.194;2022-08-04T15:15:11;4.57;;;2.20;;
49396;SDS011;35615;41.410;2.194;2022-08-04T15:17:58;8.13;;;2.42;;
49396;SDS011;35615;41.410;2.194;2022-08-04T15:20:26;3.30;;;1.80;;
49396;SDS011;35615;41.410;2.194;2022-08-04T15:23:00;5.65;;;2.05;;
49396;SDS011;35615;41.410;2.194;2022-08-04T15:25:46;5.25;;;2.10;;
49396;SDS011;35615;41.410;2.194;2022-08-04T15:28:22;4.40;;;1.92;;
49396;SDS011;35615;41.410;2.194;2022-08-04T15:30:55;2.85;;;2.03;;
49396;SDS011;35615;41.410;2.194;2022-08-04T15:33:26;6.20;;;2.13;;
49396;SDS011;35615;41.410;2.194;2022-08-04T15:38:41;5.95;;;2.00;;
49396;SDS011;35615;41.410;2.194;2022-08-04T15:41:21;4.53;;;2.20;;
49396;SDS011;35615;41.410;2.194;2022-08-04T15:44:17;4.07;;;1.98;;
49396;SDS011;35615;41.410;2.194;2022-08-04T15:49:29;2.53;;;1.80;;
49396;SDS011;35615;41.410;2.194;2022-08-04T15:52:00;6.38;;;1.67;;
49396;SDS011;35615;41.410;2.194;2022-08-04T15:54:37;5.68;;;2.22;;
49396;SDS011;35615;41.410;2.194;2022-08-04T15:57:55;3.22;;;2.13;;
49396;SDS011;35615;41.410;2.194;2022-08-04T16:00:25;5.05;;;1.80;;
49396;SDS011;35615;41.410;2.194;2022-08-04T16:02:54;3.70;;;2.30;;
49396;SDS011;35615;41.410;2.194;2022-08-04T16:07:52;6.20;;;2.28;;
49396;SDS011;35615;41.410;2.194;2022-08-04T16:12:57;5.13;;;2.28;;
49396;SDS011;35615;41.410;2.194;2022-08-04T16:21:01;10.38;;;2.20;;
49396;SDS011;35615;41.410;2.194;2022-08-04T16:34:35;4.70;;;1.88;;
49396;SDS011;35615;41.410;2.194;2022-08-04T16:40:26;2.35;;;2.13;;
49396;SDS011;35615;41.410;2.194;2022-08-04T16:51:48;5.35;;;2.00;;
49396;SDS011;35615;41.410;2.194;2022-08-04T16:54:23;4.47;;;1.83;;
49396;SDS011;35615;41.410;2.194;2022-08-04T16:56:51;8.35;;;2.63;;
49396;SDS011;35615;41.410;2.194;2022-08-04T16:59:21;2.58;;;2.38;;
49396;SDS011;35615;41.410;2.194;2022-08-04T17:01:50;2.45;;;1.83;;
49396;SDS011;35615;41.410;2.194;2022-08-04T17:04:30;4.15;;;2.15;;
49396;SDS011;35615;41.410;2.194;2022-08-04T17:07:00;3.75;;;2.15;;
49396;SDS011;35615;41.410;2.194;2022-08-04T17:09:47;7.25;;;2.10;;
49396;SDS011;35615;41.410;2.194;2022-08-04T17:12:17;6.82;;;1.88;;
49396;SDS011;35615;41.410;2.194;2022-08-04T17:14:49;6.03;;;2.08;;
49396;SDS011;35615;41.410;2.194;2022-08-04T17:17:21;5.97;;;1.90;;
49396;SDS011;35615;41.410;2.194;2022-08-04T17:19:58;3.80;;;1.73;;
49396;SDS011;35615;41.410;2.194;2022-08-04T17:22:27;5.40;;;1.97;;
49396;SDS011;35615;41.410;2.194;2022-08-04T17:24:55;3.15;;;2.30;;
49396;SDS011;35615;41.410;2.194;2022-08-04T17:27:25;3.38;;;2.00;;
49396;SDS011;35615;41.410;2.194;2022-08-04T17:30:31;2.00;;;1.77;;
49396;SDS011;35615;41.410;2.194;2022-08-04T17:32:58;5.70;;;2.00;;
49396;SDS011;35615;41.410;2.194;2022-08-04T17:35:26;3.13;;;1.95;;
49396;SDS011;35615;41.410;2.194;2022-08-04T17:38:04;2.78;;;1.98;;
49396;SDS011;35615;41.410;2.194;2022-08-04T17:40:31;2.35;;;1.90;;
49396;SDS011;35615;41.410;2.194;2022-08-04T17:43:03;7.82;;;2.40;;
49396;SDS011;35615;41.410;2.194;2022-08-04T17:48:59;3.53;;;1.98;;
49396;SDS011;35615;41.410;2.194;2022-08-04T17:51:47;4.47;;;1.83;;
49396;SDS011;35615;41.410;2.194;2022-08-04T17:54:37;2.90;;;2.45;;
49396;SDS011;35615;41.410;2.194;2022-08-04T17:57:13;3.92;;;2.78;;
49396;SDS011;35615;41.410;2.194;2022-08-04T17:59:51;9.00;;;2.42;;
49396;SDS011;35615;41.410;2.194;2022-08-04T18:02:24;2.90;;;1.98;;
49396;SDS011;35615;41.410;2.194;2022-08-04T18:04:59;6.03;;;3.33;;
49396;SDS011;35615;41.410;2.194;2022-08-04T18:07:36;3.20;;;2.10;;
49396;SDS011;35615;41.410;2.194;2022-08-04T18:10:40;5.82;;;2.50;;
49396;SDS011;35615;41.410;2.194;2022-08-04T18:13:25;10.07;;;2.22;;
49396;SDS011;35615;41.410;2.194;2022-08-04T18:16:00;4.47;;;2.42;;
49396;SDS011;35615;41.410;2.194;2022-08-04T18:19:09;6.63;;;2.03;;
49396;SDS011;35615;41.410;2.194;2022-08-04T18:21:45;3.92;;;2.30;;
49396;SDS011;35615;41.410;2.194;2022-08-04T18:24:30;6.32;;;2.53;;
49396;SDS011;35615;41.410;2.194;2022-08-04T18:27:22;5.70;;;3.03;;
49396;SDS011;35615;41.410;2.194;2022-08-04T18:29:55;4.80;;;2.70;;
49396;SDS011;35615;41.410;2.194;2022-08-04T18:32:46;3.70;;;2.78;;
49396;SDS011;35615;41.410;2.194;2022-08-04T18:35:34;8.32;;;3.55;;
49396;SDS011;35615;41.410;2.194;2022-08-04T18:38:22;7.35;;;2.92;;
49396;SDS011;35615;41.410;2.194;2022-08-04T18:40:50;9.88;;;3.28;;
49396;SDS011;35615;41.410;2.194;2022-08-04T18:43:24;5.07;;;3.22;;
49396;SDS011;35615;41.410;2.194;2022-08-04T18:46:05;3.95;;;2.55;;
49396;SDS011;35615;41.410;2.194;2022-08-04T18:48:40;5.60;;;2.78;;
49396;SDS011;35615;41.410;2.194;2022-08-04T18:51:33;6.33;;;2.37;;
49396;SDS011;35615;41.410;2.194;2022-08-04T18:54:05;5.15;;;2.67;;
49396;SDS011;35615;41.410;2.194;2022-08-04T18:56:37;3.47;;;2.58;;
49396;SDS011;35615;41.410;2.194;2022-08-04T18:59:25;9.68;;;2.63;;
49396;SDS011;35615;41.410;2.194;2022-08-04T19:01:55;4.63;;;2.80;;
49396;SDS011;35615;41.410;2.194;2022-08-04T19:04:42;4.20;;;2.70;;
49396;SDS011;35615;41.410;2.194;2022-08-04T19:07:15;3.30;;;2.40;;
49396;SDS011;35615;41.410;2.194;2022-08-04T19:10:02;6.80;;;2.90;;
49396;SDS011;35615;41.410;2.194;2022-08-04T19:12:31;6.50;;;2.95;;
49396;SDS011;35615;41.410;2.194;2022-08-04T19:15:01;4.68;;;2.50;;
49396;SDS011;35615;41.410;2.194;2022-08-04T19:17:36;8.70;;;2.33;;
49396;SDS011;35615;41.410;2.194;2022-08-04T19:20:23;6.03;;;2.17;;
49396;SDS011;35615;41.410;2.194;2022-08-04T19:22:57;3.58;;;2.45;;
49396;SDS011;35615;41.410;2.194;2022-08-04T19:25:45;3.17;;;2.70;;
49396;SDS011;35615;41.410;2.194;2022-08-04T19:28:30;4.13;;;2.55;;
49396;SDS011;35615;41.410;2.194;2022-08-04T19:31:03;6.72;;;3.22;;
49396;SDS011;35615;41.410;2.194;2022-08-04T19:33:32;4.03;;;2.17;;
49396;SDS011;35615;41.410;2.194;2022-08-04T19:36:20;10.85;;;2.72;;
49396;SDS011;35615;41.410;2.194;2022-08-04T19:38:57;3.58;;;2.30;;
49396;SDS011;35615;41.410;2.194;2022-08-04T19:41:27;6.75;;;3.10;;
49396;SDS011;35615;41.410;2.194;2022-08-04T19:44:22;2.92;;;1.95;;
49396;SDS011;35615;41.410;2.194;2022-08-04T19:46:49;6.28;;;2.28;;
49396;SDS011;35615;41.410;2.194;2022-08-04T19:49:18;3.88;;;2.03;;
49396;SDS011;35615;41.410;2.194;2022-08-04T19:52:05;7.65;;;2.60;;
49396;SDS011;35615;41.410;2.194;2022-08-04T19:54:35;4.05;;;1.90;;
49396;SDS011;35615;41.410;2.194;2022-08-04T19:57:06;2.83;;;1.98;;
49396;SDS011;35615;41.410;2.194;2022-08-04T19:59:54;1.90;;;1.70;;
49396;SDS011;35615;41.410;2.194;2022-08-04T20:02:21;6.63;;;2.17;;
49396;SDS011;35615;41.410;2.194;2022-08-04T20:04:50;2.58;;;2.05;;
49396;SDS011;35615;41.410;2.194;2022-08-04T20:07:17;4.68;;;2.10;;
49396;SDS011;35615;41.410;2.194;2022-08-04T20:09:45;4.90;;;2.00;;
49396;SDS011;35615;41.410;2.194;2022-08-04T20:12:19;3.53;;;1.80;;
49396;SDS011;35615;41.410;2.194;2022-08-04T20:14:50;3.20;;;2.17;;
49396;SDS011;35615;41.410;2.194;2022-08-04T20:17:20;5.47;;;2.35;;
49396;SDS011;35615;41.410;2.194;2022-08-04T20:20:07;10.70;;;2.38;;
49396;SDS011;35615;41.410;2.194;2022-08-04T20:22:36;3.20;;;2.05;;
49396;SDS011;35615;41.410;2.194;2022-08-04T20:25:18;3.03;;;2.00;;
49396;SDS011;35615;41.410;2.194;2022-08-04T20:28:03;4.43;;;2.05;;
49396;SDS011;35615;41.410;2.194;2022-08-04T20:30:31;4.35;;;2.17;;
49396;SDS011;35615;41.410;2.194;2022-08-04T20:33:01;5.32;;;2.30;;
49396;SDS011;35615;41.410;2.194;2022-08-04T20:35:32;4.60;;;2.25;;
49396;SDS011;35615;41.410;2.194;2022-08-04T20:38:21;2.50;;;2.20;;
49396;SDS011;35615;41.410;2.194;2022-08-04T20:40:59;3.03;;;1.85;;
49396;SDS011;35615;41.410;2.194;2022-08-04T20:43:27;5.43;;;2.45;;